Time;durP1;ratioP1;P1;durP2;ratioP2;P2;SDS_P1;SDS_P2;PMS_P1;PMS_P2;Temp;Humidity;BMP_temperature;BMP_pressure;BME280_temperature;BME280_humidity;BME280_pressure;Samples;Min_cycle;Max_cycle;Signal;HPM_P1;HPM_P2
2022/11/30 00:01:23;;;;;;;32.72;13.90;;;;;;;;;;5033239;28;20021;-89
2022/11/30 00:04:08;;;;;;;42.03;14.02;;;;;;;;;;5034831;28;20017;-89
2022/11/30 00:06:34;;;;;;;27.08;14.38;;;;;;;;;;5036230;28;20753;-89
2022/11/30 00:08:59;;;;;;;40.60;15.68;;;;;;;;;;5022932;28;20020;-88
2022/11/30 00:11:27;;;;;;;33.70;14.70;;;;;;;;;;5041309;28;20379;-88
2022/11/30 00:13:52;;;;;;;32.58;14.25;;;;;;;;;;5039439;28;20016;-89
2022/11/30 00:16:18;;;;;;;31.42;14.45;;;;;;;;;;5044380;28;20327;-88
2022/11/30 00:18:43;;;;;;;32.35;13.25;;;;;;;;;;5027570;28;20052;-88
2022/11/30 00:21:11;;;;;;;35.55;13.48;;;;;;;;;;5038312;28;20786;-88
2022/11/30 00:23:38;;;;;;;37.13;13.90;;;;;;;;;;5044301;28;20037;-89
2022/11/30 00:26:07;;;;;;;40.10;15.63;;;;;;;;;;5041142;28;20078;-89
2022/11/30 00:28:36;;;;;;;27.77;13.95;;;;;;;;;;5031154;28;20127;-88
2022/11/30 00:31:05;;;;;;;34.47;15.35;;;;;;;;;;5049895;28;20032;-88
2022/11/30 00:33:32;;;;;;;38.00;14.73;;;;;;;;;;5035414;28;20541;-88
2022/11/30 00:36:13;;;;;;;33.55;13.68;;;;;;;;;;5060636;28;20044;-87
2022/11/30 00:38:38;;;;;;;34.97;13.75;;;;;;;;;;5043114;28;20075;-88
2022/11/30 00:41:04;;;;;;;35.03;13.40;;;;;;;;;;5039519;28;20115;-88
2022/11/30 00:43:30;;;;;;;32.60;14.07;;;;;;;;;;5052448;28;20021;-89
2022/11/30 00:45:55;;;;;;;28.08;13.20;;;;;;;;;;5045675;28;20021;-89
2022/11/30 00:48:21;;;;;;;31.15;14.60;;;;;;;;;;5027607;28;20734;-89
2022/11/30 00:50:48;;;;;;;39.65;13.00;;;;;;;;;;5036768;28;20116;-89
2022/11/30 00:53:13;;;;;;;33.13;13.07;;;;;;;;;;5045765;28;20036;-90
2022/11/30 00:55:39;;;;;;;37.45;15.05;;;;;;;;;;5026442;28;20033;-90
2022/11/30 00:58:06;;;;;;;31.02;12.70;;;;;;;;;;5033415;28;20037;-90
2022/11/30 01:00:31;;;;;;;25.02;12.25;;;;;;;;;;5038003;28;20053;-90
2022/11/30 01:02:58;;;;;;;28.67;13.07;;;;;;;;;;5034250;28;20057;-89
2022/11/30 01:05:24;;;;;;;32.20;13.35;;;;;;;;;;5040071;28;20112;-90
2022/11/30 01:07:50;;;;;;;32.72;13.60;;;;;;;;;;5031780;28;20025;-90
2022/11/30 01:10:16;;;;;;;29.15;13.07;;;;;;;;;;5028082;28;20095;-89
2022/11/30 01:12:41;;;;;;;27.80;13.45;;;;;;;;;;5029945;28;20161;-90
2022/11/30 01:15:07;;;;;;;33.33;13.43;;;;;;;;;;5038812;28;20056;-90
2022/11/30 01:17:33;;;;;;;26.17;13.50;;;;;;;;;;5024469;28;20022;-87
2022/11/30 01:19:58;;;;;;;29.90;13.10;;;;;;;;;;5050458;28;20027;-85
2022/11/30 01:22:23;;;;;;;30.20;13.75;;;;;;;;;;5051260;28;20035;-88
2022/11/30 01:24:49;;;;;;;30.65;14.07;;;;;;;;;;5033790;28;20056;-86
2022/11/30 01:27:14;;;;;;;28.80;12.35;;;;;;;;;;5050433;28;20024;-86
2022/11/30 01:29:42;;;;;;;32.58;13.38;;;;;;;;;;5026066;28;20021;-86
2022/11/30 01:32:07;;;;;;;26.90;12.57;;;;;;;;;;5043777;28;20024;-89
2022/11/30 01:34:33;;;;;;;30.50;11.63;;;;;;;;;;5038990;28;20116;-86
2022/11/30 01:36:58;;;;;;;24.55;12.32;;;;;;;;;;5039599;28;20064;-90
2022/11/30 01:39:24;;;;;;;28.30;14.32;;;;;;;;;;5039047;28;20475;-87
2022/11/30 01:41:49;;;;;;;24.92;11.63;;;;;;;;;;5043837;28;20025;-88
2022/11/30 01:44:15;;;;;;;19.98;10.23;;;;;;;;;;5043417;28;20021;-88
2022/11/30 01:46:48;;;;;;;28.67;13.07;;;;;;;;;;5057148;28;20037;-85
2022/11/30 01:49:18;;;;;;;23.25;12.75;;;;;;;;;;5043406;28;20414;-89
2022/11/30 01:51:49;;;;;;;24.20;12.25;;;;;;;;;;5044586;28;20033;-87
2022/11/30 01:54:18;;;;;;;39.50;11.85;;;;;;;;;;5037046;28;20453;-86
2022/11/30 01:56:49;;;;;;;31.45;12.00;;;;;;;;;;5041426;28;20044;-90
2022/11/30 01:59:15;;;;;;;28.40;12.60;;;;;;;;;;5056422;28;20042;-88
2022/11/30 02:01:40;;;;;;;30.77;13.15;;;;;;;;;;5054146;28;20077;-86
2022/11/30 02:04:25;;;;;;;25.23;12.80;;;;;;;;;;5055295;28;20033;-86
2022/11/30 02:06:51;;;;;;;23.00;11.55;;;;;;;;;;5015159;28;20025;-84
2022/11/30 02:09:18;;;;;;;32.30;12.90;;;;;;;;;;5042393;28;20040;-87
2022/11/30 02:11:44;;;;;;;27.88;12.60;;;;;;;;;;5043459;28;20506;-86
2022/11/30 02:14:16;;;;;;;23.40;12.45;;;;;;;;;;5036808;28;20037;-89
2022/11/30 02:16:48;;;;;;;26.13;12.95;;;;;;;;;;5034573;28;20391;-90
2022/11/30 02:19:13;;;;;;;;;;;;;;;;;;5040963;28;20029;-91
2022/11/30 02:22:02;;;;;;;26.33;10.45;;;;;;;;;;5041004;28;19924;-86
2022/11/30 02:24:59;;;;;;;28.95;12.63;;;;;;;;;;5030429;28;20954;-89
2022/11/30 02:27:46;;;;;;;26.17;11.15;;;;;;;;;;5022224;28;20083;-89
2022/11/30 02:30:18;;;;;;;22.75;11.55;;;;;;;;;;5054632;28;20050;-89
2022/11/30 02:32:53;;;;;;;26.52;11.85;;;;;;;;;;5053111;28;20392;-89
2022/11/30 02:35:23;;;;;;;25.08;13.20;;;;;;;;;;5037393;28;20036;-91
2022/11/30 02:37:51;;;;;;;30.65;13.43;;;;;;;;;;5073278;28;20035;-89
2022/11/30 02:40:18;;;;;;;28.27;12.82;;;;;;;;;;5047347;28;20078;-90
2022/11/30 02:42:43;;;;;;;29.13;12.98;;;;;;;;;;5055093;28;20036;-88
2022/11/30 02:45:09;;;;;;;21.20;11.98;;;;;;;;;;5055591;28;20021;-90
2022/11/30 02:48:04;;;;;;;27.67;12.75;;;;;;;;;;5037537;28;20025;-90
2022/11/30 02:50:36;;;;;;;24.48;11.85;;;;;;;;;;5032802;28;20052;-90
2022/11/30 02:53:02;;;;;;;31.30;11.38;;;;;;;;;;5037555;28;20112;-90
2022/11/30 02:55:28;;;;;;;24.48;12.07;;;;;;;;;;5055430;28;20179;-91
2022/11/30 02:57:54;;;;;;;26.30;12.10;;;;;;;;;;5053604;28;20029;-89
2022/11/30 03:00:19;;;;;;;23.10;12.73;;;;;;;;;;5035232;28;20033;-89
2022/11/30 03:02:45;;;;;;;26.38;12.93;;;;;;;;;;5054224;28;20025;-88
2022/11/30 03:05:10;;;;;;;27.88;12.85;;;;;;;;;;5037124;28;20028;-92
2022/11/30 03:07:35;;;;;;;28.30;12.73;;;;;;;;;;5054599;28;20467;-90
2022/11/30 03:10:01;;;;;;;28.33;12.43;;;;;;;;;;5054218;28;20024;-86
2022/11/30 03:12:26;;;;;;;23.30;11.52;;;;;;;;;;5052327;28;20025;-91
2022/11/30 03:14:52;;;;;;;19.48;10.95;;;;;;;;;;5049564;28;20109;-91
2022/11/30 03:17:17;;;;;;;23.23;11.25;;;;;;;;;;5054571;28;20078;-89
2022/11/30 03:19:43;;;;;;;20.63;10.48;;;;;;;;;;5052102;28;20029;-91
2022/11/30 03:22:08;;;;;;;24.45;11.45;;;;;;;;;;5046459;28;20087;-92
2022/11/30 03:24:34;;;;;;;19.90;10.25;;;;;;;;;;5043341;28;20025;-89
2022/11/30 03:26:59;;;;;;;26.98;10.90;;;;;;;;;;5042836;28;20079;-90
2022/11/30 03:29:24;;;;;;;19.58;10.23;;;;;;;;;;5029314;28;20502;-90
2022/11/30 03:31:50;;;;;;;21.52;10.85;;;;;;;;;;5044314;28;20029;-91
2022/11/30 03:34:15;;;;;;;22.25;12.18;;;;;;;;;;5060087;28;20091;-91
2022/11/30 03:36:41;;;;;;;21.58;9.73;;;;;;;;;;5036976;28;20025;-89
2022/11/30 03:39:06;;;;;;;21.88;10.25;;;;;;;;;;5054327;28;20382;-92
2022/11/30 03:41:31;;;;;;;18.23;9.13;;;;;;;;;;5035570;28;20047;-91
2022/11/30 03:43:57;;;;;;;22.05;10.95;;;;;;;;;;5036342;28;20021;-91
2022/11/30 03:46:22;;;;;;;20.33;10.30;;;;;;;;;;5034358;28;20081;-92
2022/11/30 03:48:47;;;;;;;17.60;9.50;;;;;;;;;;5045777;28;20042;-90
2022/11/30 03:51:13;;;;;;;20.38;10.13;;;;;;;;;;5052733;28;20036;-91
2022/11/30 03:53:39;;;;;;;20.70;9.63;;;;;;;;;;5053720;28;20036;-89
2022/11/30 03:56:07;;;;;;;23.52;11.07;;;;;;;;;;5053839;28;20032;-89
2022/11/30 03:58:33;;;;;;;19.35;9.05;;;;;;;;;;5035639;28;20029;-92
2022/11/30 04:01:03;;;;;;;21.10;9.63;;;;;;;;;;5053034;28;20025;-91
2022/11/30 04:03:29;;;;;;;18.48;9.90;;;;;;;;;;5048252;28;20029;-90
2022/11/30 04:05:55;;;;;;;24.25;11.38;;;;;;;;;;5052893;28;20036;-90
2022/11/30 04:08:20;;;;;;;27.83;11.38;;;;;;;;;;5051939;28;20036;-89
2022/11/30 04:10:49;;;;;;;21.83;10.30;;;;;;;;;;5053519;28;20033;-90
2022/11/30 04:13:14;;;;;;;19.88;10.38;;;;;;;;;;5053709;28;20036;-89
2022/11/30 04:15:40;;;;;;;21.38;10.07;;;;;;;;;;5045616;28;20059;-90
2022/11/30 04:18:05;;;;;;;19.25;9.88;;;;;;;;;;5053847;28;20029;-89
2022/11/30 04:20:30;;;;;;;23.98;10.52;;;;;;;;;;5053314;28;20025;-89
2022/11/30 04:22:57;;;;;;;15.57;9.02;;;;;;;;;;5047106;28;20056;-89
2022/11/30 04:25:22;;;;;;;22.73;11.55;;;;;;;;;;5049990;28;20529;-88
2022/11/30 04:27:47;;;;;;;19.50;9.63;;;;;;;;;;5042073;28;20016;-89
2022/11/30 04:30:14;;;;;;;17.92;9.13;;;;;;;;;;5044204;28;20040;-91
2022/11/30 04:32:39;;;;;;;19.77;9.55;;;;;;;;;;5027344;28;20583;-88
2022/11/30 04:35:05;;;;;;;19.70;10.65;;;;;;;;;;5043204;28;21307;-87
2022/11/30 04:37:30;;;;;;;18.20;9.27;;;;;;;;;;5042451;28;20406;-88
2022/11/30 04:39:55;;;;;;;19.50;10.65;;;;;;;;;;5036117;28;20027;-88
2022/11/30 04:42:21;;;;;;;21.95;10.68;;;;;;;;;;5049139;28;20041;-89
2022/11/30 04:44:46;;;;;;;15.85;8.77;;;;;;;;;;5052610;28;20033;-89
2022/11/30 04:47:11;;;;;;;20.75;9.88;;;;;;;;;;5052329;28;20076;-89
2022/11/30 04:49:37;;;;;;;18.63;10.18;;;;;;;;;;5052070;28;20020;-88
2022/11/30 04:52:02;;;;;;;23.80;10.27;;;;;;;;;;5052156;28;20021;-87
2022/11/30 04:54:28;;;;;;;17.65;9.98;;;;;;;;;;5052510;28;20482;-89
2022/11/30 04:56:53;;;;;;;18.60;9.27;;;;;;;;;;5033448;28;20075;-88
2022/11/30 04:59:18;;;;;;;23.38;10.38;;;;;;;;;;5014436;28;20029;-88
2022/11/30 05:01:44;;;;;;;19.83;10.23;;;;;;;;;;5048781;28;20403;-91
2022/11/30 05:04:09;;;;;;;15.95;8.90;;;;;;;;;;5052727;28;20033;-90
2022/11/30 05:06:34;;;;;;;17.15;9.15;;;;;;;;;;5051671;28;20040;-91
2022/11/30 05:09:00;;;;;;;19.60;9.68;;;;;;;;;;5037851;28;20036;-89
2022/11/30 05:11:25;;;;;;;16.50;8.85;;;;;;;;;;5046586;28;20028;-90
2022/11/30 05:13:50;;;;;;;19.13;9.40;;;;;;;;;;5041978;28;20033;-89
2022/11/30 05:16:16;;;;;;;18.42;9.45;;;;;;;;;;5052408;28;20039;-88
2022/11/30 05:18:41;;;;;;;20.52;10.38;;;;;;;;;;5052098;28;20032;-90
2022/11/30 05:21:06;;;;;;;24.20;12.05;;;;;;;;;;5032468;28;20106;-89
2022/11/30 05:23:32;;;;;;;14.90;8.75;;;;;;;;;;5053067;28;20178;-89
2022/11/30 05:26:01;;;;;;;20.35;10.05;;;;;;;;;;5040222;28;20028;-90
2022/11/30 05:28:26;;;;;;;21.10;10.02;;;;;;;;;;5051971;28;20035;-90
2022/11/30 05:30:51;;;;;;;23.40;9.35;;;;;;;;;;5046935;28;20029;-90
2022/11/30 05:33:16;;;;;;;15.90;8.88;;;;;;;;;;5040847;28;20059;-88
2022/11/30 05:35:42;;;;;;;17.63;8.90;;;;;;;;;;5052527;28;20017;-89
2022/11/30 05:38:08;;;;;;;20.05;10.02;;;;;;;;;;5025691;28;20028;-88
2022/11/30 05:40:33;;;;;;;17.67;9.93;;;;;;;;;;5037442;28;20036;-88
2022/11/30 05:43:00;;;;;;;15.10;8.52;;;;;;;;;;5054095;28;20032;-88
2022/11/30 05:45:26;;;;;;;17.65;8.20;;;;;;;;;;5056467;28;20013;-89
2022/11/30 05:47:52;;;;;;;19.08;9.43;;;;;;;;;;5038077;28;20040;-89
2022/11/30 05:50:17;;;;;;;18.98;9.05;;;;;;;;;;5037162;28;20032;-90
2022/11/30 05:52:43;;;;;;;19.55;9.50;;;;;;;;;;5056253;28;20107;-91
2022/11/30 05:55:08;;;;;;;16.08;9.15;;;;;;;;;;5033732;28;20057;-90
2022/11/30 05:57:36;;;;;;;21.25;9.00;;;;;;;;;;5036281;28;20026;-89
2022/11/30 06:00:03;;;;;;;29.08;8.85;;;;;;;;;;5022399;28;20028;-90
2022/11/30 06:02:28;;;;;;;20.42;8.85;;;;;;;;;;5044112;28;20021;-91
2022/11/30 06:04:53;;;;;;;15.32;8.63;;;;;;;;;;5042932;28;20046;-91
2022/11/30 06:07:19;;;;;;;18.13;8.63;;;;;;;;;;5042844;28;20410;-90
2022/11/30 06:09:44;;;;;;;21.17;9.80;;;;;;;;;;5040736;28;20055;-91
2022/11/30 06:12:09;;;;;;;19.95;9.32;;;;;;;;;;5038382;28;20040;-87
2022/11/30 06:14:35;;;;;;;16.73;9.10;;;;;;;;;;5042533;28;20017;-90
2022/11/30 06:17:00;;;;;;;17.92;8.98;;;;;;;;;;5043650;28;20020;-89
2022/11/30 06:19:25;;;;;;;21.00;8.48;;;;;;;;;;5044910;28;20025;-90
2022/11/30 06:21:51;;;;;;;19.33;8.82;;;;;;;;;;5040278;28;20025;-90
2022/11/30 06:24:16;;;;;;;15.32;8.57;;;;;;;;;;5042400;28;20025;-90
2022/11/30 06:26:41;;;;;;;18.45;8.68;;;;;;;;;;5049624;28;20883;-89
2022/11/30 06:29:08;;;;;;;17.35;8.38;;;;;;;;;;5049420;28;20091;-89
2022/11/30 06:31:33;;;;;;;15.05;8.63;;;;;;;;;;5058830;28;20068;-90
2022/11/30 06:33:59;;;;;;;18.00;9.10;;;;;;;;;;5037020;28;20055;-90
2022/11/30 06:36:24;;;;;;;19.83;9.65;;;;;;;;;;5051379;28;20086;-86
2022/11/30 06:38:50;;;;;;;14.50;7.85;;;;;;;;;;5044440;28;20036;-88
2022/11/30 06:41:16;;;;;;;15.93;7.93;;;;;;;;;;5037080;28;20452;-88
2022/11/30 06:43:42;;;;;;;14.30;7.43;;;;;;;;;;5040148;28;20400;-89
2022/11/30 06:46:08;;;;;;;16.60;8.25;;;;;;;;;;5044100;28;20056;-89
2022/11/30 06:48:34;;;;;;;16.88;7.97;;;;;;;;;;5040796;28;20057;-88
2022/11/30 06:51:03;;;;;;;25.70;8.05;;;;;;;;;;5040943;28;20029;-84
2022/11/30 06:53:28;;;;;;;14.50;7.28;;;;;;;;;;5024960;28;20470;-84
2022/11/30 06:55:54;;;;;;;14.90;7.53;;;;;;;;;;5039756;28;20059;-89
2022/11/30 06:58:19;;;;;;;13.95;6.95;;;;;;;;;;5041466;28;20036;-83
2022/11/30 07:00:44;;;;;;;17.83;7.68;;;;;;;;;;5038288;28;20572;-89
2022/11/30 07:03:10;;;;;;;13.10;8.07;;;;;;;;;;5033206;28;20029;-88
2022/11/30 07:05:44;;;;;;;19.25;7.88;;;;;;;;;;5033734;28;20040;-88
2022/11/30 07:08:11;;;;;;;15.73;6.47;;;;;;;;;;5037424;28;20041;-87
2022/11/30 07:10:41;;;;;;;18.33;7.30;;;;;;;;;;5037304;28;20025;-89
2022/11/30 07:13:11;;;;;;;15.38;7.47;;;;;;;;;;5038061;28;20025;-88
2022/11/30 07:15:38;;;;;;;12.77;6.88;;;;;;;;;;5033062;28;20021;-88
2022/11/30 07:18:04;;;;;;;15.70;6.88;;;;;;;;;;5034170;28;20047;-88
2022/11/30 07:20:29;;;;;;;13.98;6.03;;;;;;;;;;5031794;28;20032;-88
2022/11/30 07:22:55;;;;;;;12.07;6.40;;;;;;;;;;5039101;28;20117;-89
2022/11/30 07:28:07;;;;;;;13.10;6.70;;;;;;;;;;5051345;28;20090;-86
2022/11/30 07:30:33;;;;;;;17.10;8.35;;;;;;;;;;5057419;28;20030;-85
2022/11/30 07:32:58;;;;;;;13.68;7.72;;;;;;;;;;5052467;28;20026;-88
2022/11/30 07:35:23;;;;;;;17.73;7.65;;;;;;;;;;5026263;28;20701;-87
2022/11/30 07:37:49;;;;;;;12.77;6.75;;;;;;;;;;5039263;28;21609;-86
2022/11/30 07:40:14;;;;;;;13.70;7.05;;;;;;;;;;5040559;28;20041;-87
2022/11/30 07:42:39;;;;;;;11.35;6.57;;;;;;;;;;5024859;28;20021;-87
2022/11/30 07:45:05;;;;;;;14.30;7.45;;;;;;;;;;5023883;28;20032;-89
2022/11/30 07:47:30;;;;;;;17.40;7.53;;;;;;;;;;5025271;28;20025;-89
2022/11/30 07:49:56;;;;;;;14.57;7.57;;;;;;;;;;5014350;28;20044;-88
2022/11/30 07:52:21;;;;;;;18.17;8.93;;;;;;;;;;5059741;28;20020;-91
2022/11/30 07:54:47;;;;;;;14.30;8.05;;;;;;;;;;5043235;28;20039;-89
2022/11/30 07:57:12;;;;;;;15.35;8.18;;;;;;;;;;5036715;28;20024;-89
2022/11/30 07:59:37;;;;;;;14.63;6.88;;;;;;;;;;5054048;28;20030;-90
2022/11/30 08:02:03;;;;;;;14.98;7.85;;;;;;;;;;5027079;28;20044;-90
2022/11/30 08:04:28;;;;;;;16.38;7.75;;;;;;;;;;5012227;28;20033;-91
2022/11/30 08:06:54;;;;;;;13.60;8.23;;;;;;;;;;5024281;28;20035;-90
2022/11/30 08:09:19;;;;;;;15.85;7.63;;;;;;;;;;5036580;28;20037;-88
2022/11/30 08:11:44;;;;;;;13.38;7.18;;;;;;;;;;5034157;28;20017;-90
2022/11/30 08:14:11;;;;;;;11.35;6.05;;;;;;;;;;5042636;28;20029;-86
2022/11/30 08:16:37;;;;;;;10.73;6.20;;;;;;;;;;5025028;28;20071;-91
2022/11/30 08:19:02;;;;;;;12.35;6.50;;;;;;;;;;5029640;28;20108;-91
2022/11/30 08:21:30;;;;;;;8.73;5.47;;;;;;;;;;5028391;28;20043;-91
2022/11/30 08:23:56;;;;;;;11.43;5.90;;;;;;;;;;5057049;28;20417;-89
2022/11/30 08:26:29;;;;;;;14.85;6.82;;;;;;;;;;5038585;28;20566;-92
2022/11/30 08:28:57;;;;;;;17.73;6.80;;;;;;;;;;5055114;28;20054;-92
2022/11/30 08:31:28;;;;;;;14.38;6.32;;;;;;;;;;5039165;28;20020;-90
2022/11/30 08:33:58;;;;;;;14.33;7.00;;;;;;;;;;5061872;28;20051;-92
2022/11/30 08:36:25;;;;;;;11.82;7.32;;;;;;;;;;5055852;28;20027;-90
2022/11/30 08:38:51;;;;;;;14.82;7.95;;;;;;;;;;5059955;28;20055;-89
2022/11/30 08:41:20;;;;;;;14.40;7.20;;;;;;;;;;5060323;28;20036;-91
2022/11/30 08:43:46;;;;;;;15.30;7.85;;;;;;;;;;5057159;28;20032;-89
2022/11/30 08:46:13;;;;;;;15.50;7.60;;;;;;;;;;5056492;28;20020;-91
2022/11/30 08:48:39;;;;;;;15.57;8.45;;;;;;;;;;5041726;28;20028;-88
2022/11/30 08:51:11;;;;;;;15.73;7.68;;;;;;;;;;5058856;28;20021;-90
2022/11/30 08:53:37;;;;;;;15.20;8.27;;;;;;;;;;5061351;28;20104;-91
2022/11/30 08:56:30;;;;;;;12.45;7.32;;;;;;;;;;5058252;28;20037;-90
2022/11/30 08:58:56;;;;;;;17.77;8.38;;;;;;;;;;5038778;28;20123;-91
2022/11/30 09:01:23;;;;;;;13.80;8.10;;;;;;;;;;5058616;28;20545;-90
2022/11/30 09:03:52;;;;;;;14.77;7.78;;;;;;;;;;5057004;28;20055;-89
2022/11/30 09:06:28;;;;;;;16.00;7.97;;;;;;;;;;5042296;28;20094;-86
2022/11/30 09:08:56;;;;;;;14.80;7.50;;;;;;;;;;5059920;28;20033;-92
2022/11/30 09:11:24;;;;;;;16.80;8.73;;;;;;;;;;5039738;28;20044;-88
2022/11/30 09:13:52;;;;;;;14.45;8.18;;;;;;;;;;5051971;28;20081;-90
2022/11/30 09:16:19;;;;;;;13.75;8.23;;;;;;;;;;5023005;28;20053;-87
2022/11/30 09:18:45;;;;;;;15.23;8.95;;;;;;;;;;5028116;28;20024;-90
2022/11/30 09:21:13;;;;;;;17.27;8.93;;;;;;;;;;5026717;28;20032;-89
2022/11/30 09:23:38;;;;;;;16.17;8.90;;;;;;;;;;5008982;28;20033;-90
2022/11/30 09:26:08;;;;;;;16.17;8.13;;;;;;;;;;5030314;28;20083;-90
2022/11/30 09:28:35;;;;;;;17.42;8.43;;;;;;;;;;5029676;28;20029;-90
2022/11/30 09:31:02;;;;;;;15.70;8.15;;;;;;;;;;5029267;28;20017;-90
2022/11/30 09:33:28;;;;;;;16.08;8.73;;;;;;;;;;5058828;28;20052;-90
2022/11/30 09:36:02;;;;;;;13.82;8.27;;;;;;;;;;5037626;28;20067;-90
2022/11/30 09:38:27;;;;;;;16.85;8.57;;;;;;;;;;5057314;28;20051;-91
2022/11/30 09:40:55;;;;;;;14.80;8.50;;;;;;;;;;5040510;28;20036;-90
2022/11/30 09:44:02;;;;;;;17.20;8.23;;;;;;;;;;5059443;28;20536;-91
2022/11/30 09:46:35;;;;;;;22.33;7.53;;;;;;;;;;5022220;28;20397;-90
2022/11/30 09:49:01;;;;;;;19.17;8.20;;;;;;;;;;5059074;28;20021;-90
2022/11/30 09:51:38;;;;;;;20.58;8.30;;;;;;;;;;5039033;28;20024;-90
2022/11/30 09:54:09;;;;;;;16.27;8.38;;;;;;;;;;5059512;28;20025;-90
2022/11/30 09:56:38;;;;;;;17.60;8.43;;;;;;;;;;5062075;28;20112;-88
2022/11/30 09:59:28;;;;;;;18.67;8.68;;;;;;;;;;5055282;28;20025;-92
2022/11/30 10:01:54;;;;;;;18.50;8.43;;;;;;;;;;5055591;28;20116;-90
2022/11/30 10:04:26;;;;;;;17.27;8.63;;;;;;;;;;5045594;28;20025;-90
2022/11/30 10:07:05;;;;;;;17.23;8.23;;;;;;;;;;5031659;28;20033;-89
2022/11/30 10:09:40;;;;;;;15.05;7.95;;;;;;;;;;5015067;28;20060;-87
2022/11/30 10:12:13;;;;;;;19.30;9.55;;;;;;;;;;5032464;28;20083;-91
2022/11/30 10:14:45;;;;;;;18.58;9.55;;;;;;;;;;5017676;28;20020;-89
2022/11/30 10:17:22;;;;;;;18.50;9.23;;;;;;;;;;5054909;28;20025;-89
2022/11/30 10:20:05;;;;;;;18.50;9.60;;;;;;;;;;5038280;28;20036;-86
2022/11/30 10:23:05;;;;;;;21.30;10.50;;;;;;;;;;5024995;28;20049;-90
2022/11/30 10:25:38;;;;;;;17.77;9.00;;;;;;;;;;5005492;28;20025;-90
2022/11/30 10:28:16;;;;;;;21.30;9.13;;;;;;;;;;5025803;28;20032;-90
2022/11/30 10:30:42;;;;;;;15.32;9.00;;;;;;;;;;5037532;28;20040;-89
2022/11/30 10:33:26;;;;;;;21.00;9.32;;;;;;;;;;5056477;28;20315;-90
2022/11/30 10:35:54;;;;;;;19.48;8.63;;;;;;;;;;5034010;28;20025;-90
2022/11/30 10:38:40;;;;;;;18.13;9.93;;;;;;;;;;5030317;28;20025;-88
2022/11/30 10:41:10;;;;;;;19.88;9.45;;;;;;;;;;5031102;28;20063;-89
2022/11/30 10:43:51;;;;;;;19.48;9.65;;;;;;;;;;5033644;28;20029;-90
2022/11/30 10:46:42;;;;;;;21.13;8.07;;;;;;;;;;5047985;28;20033;-90
2022/11/30 10:49:28;;;;;;;19.17;8.73;;;;;;;;;;5021514;28;20498;-88
2022/11/30 10:52:07;;;;;;;14.85;8.27;;;;;;;;;;5010626;28;20415;-88
2022/11/30 10:54:35;;;;;;;15.73;8.02;;;;;;;;;;5026871;28;20017;-90
2022/11/30 10:57:02;;;;;;;15.18;8.10;;;;;;;;;;5029023;28;20033;-88
2022/11/30 10:59:48;;;;;;;14.75;8.38;;;;;;;;;;5030785;28;20082;-89
2022/11/30 11:02:44;;;;;;;13.25;7.93;;;;;;;;;;5014044;28;20394;-90
2022/11/30 11:05:23;;;;;;;13.55;7.20;;;;;;;;;;5026070;28;20029;-88
2022/11/30 11:08:15;;;;;;;15.27;6.57;;;;;;;;;;5013235;28;20028;-88
2022/11/30 11:10:41;;;;;;;13.60;7.03;;;;;;;;;;5041729;28;20016;-90
2022/11/30 11:13:18;;;;;;;13.10;7.53;;;;;;;;;;5050083;28;20024;-88
2022/11/30 11:15:58;;;;;;;13.43;6.90;;;;;;;;;;5043919;28;20032;-89
2022/11/30 11:18:26;;;;;;;16.02;8.15;;;;;;;;;;5043121;28;20025;-88
2022/11/30 11:21:17;;;;;;;10.05;5.40;;;;;;;;;;5043680;28;20115;-88
2022/11/30 11:23:44;;;;;;;11.68;5.53;;;;;;;;;;5053691;28;20017;-88
2022/11/30 11:26:22;;;;;;;12.57;6.47;;;;;;;;;;5038695;28;20481;-88
2022/11/30 11:28:50;;;;;;;12.73;6.53;;;;;;;;;;5051463;28;20090;-86
2022/11/30 11:31:31;;;;;;;13.00;6.65;;;;;;;;;;5033146;28;20024;-89
2022/11/30 11:33:57;;;;;;;15.40;7.18;;;;;;;;;;5068510;28;20020;-88
2022/11/30 11:36:28;;;;;;;10.45;6.60;;;;;;;;;;5075274;28;20034;-88
2022/11/30 11:38:53;;;;;;;15.55;7.03;;;;;;;;;;5059175;28;20040;-87
2022/11/30 11:41:37;;;;;;;13.15;7.53;;;;;;;;;;5079214;28;20031;-87
2022/11/30 11:44:08;;;;;;;15.85;7.20;;;;;;;;;;5056865;28;20386;-87
2022/11/30 11:46:52;;;;;;;14.15;7.38;;;;;;;;;;5070813;28;20024;-89
2022/11/30 11:49:22;;;;;;;12.82;6.15;;;;;;;;;;5039746;28;20071;-86
2022/11/30 11:52:18;;;;;;;14.38;8.00;;;;;;;;;;5056440;28;20044;-85
2022/11/30 11:54:50;;;;;;;17.13;7.63;;;;;;;;;;5053051;28;20037;-88
2022/11/30 11:57:21;;;;;;;14.60;7.97;;;;;;;;;;5047141;28;20024;-87
2022/11/30 12:00:04;;;;;;;13.32;7.35;;;;;;;;;;5045336;28;20046;-88
2022/11/30 12:03:05;;;;;;;14.00;6.57;;;;;;;;;;5042503;28;20398;-87
2022/11/30 12:05:59;;;;;;;11.88;6.35;;;;;;;;;;5056832;28;20029;-88
2022/11/30 12:08:35;;;;;;;12.80;7.18;;;;;;;;;;5042956;28;20032;-89
2022/11/30 12:11:50;;;;;;;10.73;6.30;;;;;;;;;;5043349;28;20548;-88
2022/11/30 12:14:17;;;;;;;13.13;6.85;;;;;;;;;;5051071;28;20033;-89
2022/11/30 12:16:55;;;;;;;14.77;7.28;;;;;;;;;;5056177;28;20024;-87
2022/11/30 12:19:30;;;;;;;13.77;7.20;;;;;;;;;;5037632;28;20020;-89
2022/11/30 12:22:49;;;;;;;14.93;6.93;;;;;;;;;;5046993;28;20040;-87
2022/11/30 12:25:18;;;;;;;14.35;6.40;;;;;;;;;;5015419;28;20679;-87
2022/11/30 12:28:13;;;;;;;15.38;8.13;;;;;;;;;;5054796;28;20024;-87
2022/11/30 12:30:53;;;;;;;13.40;7.63;;;;;;;;;;5056081;28;20093;-87
2022/11/30 12:33:48;;;;;;;15.68;8.52;;;;;;;;;;5056480;28;20016;-88
2022/11/30 12:36:22;;;;;;;15.88;7.55;;;;;;;;;;5041184;28;20029;-88
2022/11/30 12:38:57;;;;;;;16.60;7.93;;;;;;;;;;5057713;28;20043;-85
2022/11/30 12:41:32;;;;;;;12.52;7.32;;;;;;;;;;5042016;28;20040;-88
2022/11/30 12:44:16;;;;;;;18.60;7.72;;;;;;;;;;5056574;28;20033;-88
2022/11/30 12:47:22;;;;;;;13.95;7.20;;;;;;;;;;5039366;28;20050;-87
2022/11/30 12:49:55;;;;;;;11.02;6.50;;;;;;;;;;5028878;28;20048;-86
2022/11/30 12:52:35;;;;;;;12.52;6.28;;;;;;;;;;5058951;28;20041;-85
2022/11/30 12:55:35;;;;;;;10.43;6.47;;;;;;;;;;5058429;28;20119;-86
2022/11/30 12:58:35;;;;;;;11.93;6.43;;;;;;;;;;5056164;28;20039;-86
2022/11/30 13:01:23;;;;;;;10.00;5.35;;;;;;;;;;5052386;28;20032;-85
2022/11/30 13:04:07;;;;;;;13.48;6.28;;;;;;;;;;5052271;28;20035;-87
2022/11/30 13:06:41;;;;;;;11.15;5.78;;;;;;;;;;5058229;28;20017;-88
2022/11/30 13:09:16;;;;;;;18.83;6.60;;;;;;;;;;5054393;28;20024;-85
2022/11/30 13:11:47;;;;;;;14.60;7.30;;;;;;;;;;5042211;28;20048;-88
2022/11/30 13:14:20;;;;;;;13.05;6.75;;;;;;;;;;5055716;28;20012;-87
2022/11/30 13:16:47;;;;;;;24.60;8.13;;;;;;;;;;5055582;28;20020;-87
2022/11/30 13:19:42;;;;;;;16.08;8.07;;;;;;;;;;5059781;28;20016;-86
2022/11/30 13:22:23;;;;;;;14.07;7.50;;;;;;;;;;5057034;28;20125;-87
2022/11/30 13:24:58;;;;;;;12.90;6.40;;;;;;;;;;5055472;28;20454;-86
2022/11/30 13:27:31;;;;;;;13.27;7.38;;;;;;;;;;5042597;28;20020;-85
2022/11/30 13:30:24;;;;;;;14.65;7.05;;;;;;;;;;5058022;28;20566;-86
2022/11/30 13:32:50;;;;;;;13.48;6.10;;;;;;;;;;5056312;28;20042;-85
2022/11/30 13:35:27;;;;;;;11.60;6.45;;;;;;;;;;5063551;28;20036;-86
2022/11/30 13:38:15;;;;;;;12.43;5.90;;;;;;;;;;5052107;28;20134;-86
2022/11/30 13:40:40;;;;;;;9.93;5.90;;;;;;;;;;5024255;28;20034;-86
2022/11/30 13:43:15;;;;;;;10.15;5.82;;;;;;;;;;5022500;28;20033;-86
2022/11/30 13:45:47;;;;;;;12.20;6.20;;;;;;;;;;5025125;28;20113;-87
2022/11/30 13:48:17;;;;;;;;;;;;;;;;;;5024559;28;21249;-86
2022/11/30 13:50:47;;;;;;;13.20;5.72;;;;;;;;;;5043715;28;19908;-85
2022/11/30 13:53:20;;;;;;;10.02;5.88;;;;;;;;;;5056339;28;20412;-86
2022/11/30 13:56:00;;;;;;;9.55;5.35;;;;;;;;;;5060321;28;20070;-85
2022/11/30 13:58:26;;;;;;;14.80;5.82;;;;;;;;;;5054513;28;20115;-86
2022/11/30 14:01:01;;;;;;;10.57;5.88;;;;;;;;;;5034493;28;20111;-85
2022/11/30 14:03:30;;;;;;;12.63;6.28;;;;;;;;;;5028172;28;20102;-86
2022/11/30 14:05:57;;;;;;;11.57;6.38;;;;;;;;;;5031096;28;20514;-85
2022/11/30 14:08:22;;;;;;;11.00;5.80;;;;;;;;;;5028557;28;20025;-86
2022/11/30 14:10:49;;;;;;;10.63;6.30;;;;;;;;;;5026903;28;20095;-87
2022/11/30 14:13:19;;;;;;;9.95;5.95;;;;;;;;;;5014500;28;20024;-85
2022/11/30 14:15:58;;;;;;;10.05;5.65;;;;;;;;;;5028987;28;20044;-85
2022/11/30 14:18:38;;;;;;;10.52;5.75;;;;;;;;;;5025083;28;20047;-86
2022/11/30 14:21:30;;;;;;;12.38;6.80;;;;;;;;;;5065149;28;20092;-86
2022/11/30 14:24:16;;;;;;;10.45;6.18;;;;;;;;;;5045680;28;20028;-86
2022/11/30 14:26:47;;;;;;;12.05;6.15;;;;;;;;;;5032933;28;20536;-87
2022/11/30 14:29:15;;;;;;;11.35;5.97;;;;;;;;;;5031743;28;20463;-87
2022/11/30 14:32:05;;;;;;;10.15;5.50;;;;;;;;;;5029809;28;20123;-87
2022/11/30 14:34:36;;;;;;;12.00;6.20;;;;;;;;;;5027009;28;20041;-86
2022/11/30 14:37:21;;;;;;;10.40;6.60;;;;;;;;;;5030652;28;20025;-85
2022/11/30 14:39:54;;;;;;;11.70;6.38;;;;;;;;;;5026002;28;20020;-85
2022/11/30 14:42:25;;;;;;;12.05;6.40;;;;;;;;;;5025317;28;21821;-89
2022/11/30 14:44:52;;;;;;;10.45;5.75;;;;;;;;;;5034398;28;20033;-86
2022/11/30 14:47:24;;;;;;;14.70;7.03;;;;;;;;;;5017558;28;20028;-85
2022/11/30 14:49:51;;;;;;;;;;;;;;;;;;5034500;28;20079;-86